sensor_id;sensor_type;location;lat;lon;timestamp;temperature;humidity
3628;DHT22;1830;49.000;12.074;2023-08-08T00:00:31;11.50;99.90
3628;DHT22;1830;49.000;12.074;2023-08-08T00:02:57;11.50;99.90
3628;DHT22;1830;49.000;12.074;2023-08-08T00:05:24;11.50;99.90
3628;DHT22;1830;49.000;12.074;2023-08-08T00:07:51;11.50;99.90
3628;DHT22;1830;49.000;12.074;2023-08-08T00:10:19;11.50;99.90
3628;DHT22;1830;49.000;12.074;2023-08-08T00:12:46;11.50;99.90
3628;DHT22;1830;49.000;12.074;2023-08-08T00:15:13;11.40;99.90
3628;DHT22;1830;49.000;12.074;2023-08-08T00:17:39;11.40;99.90
3628;DHT22;1830;49.000;12.074;2023-08-08T00:20:07;11.50;99.90
3628;DHT22;1830;49.000;12.074;2023-08-08T00:22:34;11.40;99.90
3628;DHT22;1830;49.000;12.074;2023-08-08T00:25:01;11.40;99.90
3628;DHT22;1830;49.000;12.074;2023-08-08T00:27:29;11.40;99.90
3628;DHT22;1830;49.000;12.074;2023-08-08T00:29:56;11.40;99.90
3628;DHT22;1830;49.000;12.074;2023-08-08T00:32:23;11.30;99.90
3628;DHT22;1830;49.000;12.074;2023-08-08T00:34:50;11.40;99.90
3628;DHT22;1830;49.000;12.074;2023-08-08T00:37:16;11.30;99.90
3628;DHT22;1830;49.000;12.074;2023-08-08T00:39:43;11.30;99.90
3628;DHT22;1830;49.000;12.074;2023-08-08T00:42:11;11.30;99.90
3628;DHT22;1830;49.000;12.074;2023-08-08T00:44:40;11.30;99.90
3628;DHT22;1830;49.000;12.074;2023-08-08T00:47:07;11.30;99.90
3628;DHT22;1830;49.000;12.074;2023-08-08T00:49:34;11.30;99.90
3628;DHT22;1830;49.000;12.074;2023-08-08T00:52:02;11.30;99.90
3628;DHT22;1830;49.000;12.074;2023-08-08T00:54:28;11.30;99.90
3628;DHT22;1830;49.000;12.074;2023-08-08T00:56:56;11.30;99.90
3628;DHT22;1830;49.000;12.074;2023-08-08T00:59:23;11.30;99.90
3628;DHT22;1830;49.000;12.074;2023-08-08T01:01:51;11.30;99.90
3628;DHT22;1830;49.000;12.074;2023-08-08T01:04:19;11.30;99.90
3628;DHT22;1830;49.000;12.074;2023-08-08T01:06:53;11.30;99.90
3628;DHT22;1830;49.000;12.074;2023-08-08T01:09:25;11.30;99.90
3628;DHT22;1830;49.000;12.074;2023-08-08T01:11:55;11.30;99.90
3628;DHT22;1830;49.000;12.074;2023-08-08T01:14:24;11.40;99.90
3628;DHT22;1830;49.000;12.074;2023-08-08T01:16:54;11.40;99.90
3628;DHT22;1830;49.000;12.074;2023-08-08T01:19:26;11.30;99.90
3628;DHT22;1830;49.000;12.074;2023-08-08T01:21:54;11.30;99.90
3628;DHT22;1830;49.000;12.074;2023-08-08T01:24:25;11.30;99.90
3628;DHT22;1830;49.000;12.074;2023-08-08T01:26:54;11.40;99.90
3628;DHT22;1830;49.000;12.074;2023-08-08T01:29:22;11.40;99.90
3628;DHT22;1830;49.000;12.074;2023-08-08T01:31:48;11.40;99.90
3628;DHT22;1830;49.000;12.074;2023-08-08T01:34:15;11.30;99.90
3628;DHT22;1830;49.000;12.074;2023-08-08T01:36:46;11.30;99.90
3628;DHT22;1830;49.000;12.074;2023-08-08T01:39:17;11.30;99.90
3628;DHT22;1830;49.000;12.074;2023-08-08T01:41:48;11.40;99.90
3628;DHT22;1830;49.000;12.074;2023-08-08T01:44:16;11.40;99.90
3628;DHT22;1830;49.000;12.074;2023-08-08T01:46:44;11.40;99.90
3628;DHT22;1830;49.000;12.074;2023-08-08T01:49:11;11.40;99.90
3628;DHT22;1830;49.000;12.074;2023-08-08T01:51:38;11.40;99.90
3628;DHT22;1830;49.000;12.074;2023-08-08T01:54:05;11.40;99.90
3628;DHT22;1830;49.000;12.074;2023-08-08T01:56:31;11.50;99.90
3628;DHT22;1830;49.000;12.074;2023-08-08T01:58:59;11.50;99.90
3628;DHT22;1830;49.000;12.074;2023-08-08T02:01:26;11.60;99.90
3628;DHT22;1830;49.000;12.074;2023-08-08T02:03:53;11.50;99.90
3628;DHT22;1830;49.000;12.074;2023-08-08T02:06:20;11.60;99.90
3628;DHT22;1830;49.000;12.074;2023-08-08T02:08:47;11.60;99.90
3628;DHT22;1830;49.000;12.074;2023-08-08T02:11:13;11.60;99.90
3628;DHT22;1830;49.000;12.074;2023-08-08T02:13:40;11.50;99.90
3628;DHT22;1830;49.000;12.074;2023-08-08T02:16:08;11.50;99.90
3628;DHT22;1830;49.000;12.074;2023-08-08T02:18:35;11.50;99.90
3628;DHT22;1830;49.000;12.074;2023-08-08T02:21:06;11.50;99.90
3628;DHT22;1830;49.000;12.074;2023-08-08T02:23:32;11.50;99.90
3628;DHT22;1830;49.000;12.074;2023-08-08T02:25:59;11.50;99.90
3628;DHT22;1830;49.000;12.074;2023-08-08T02:28:26;11.50;99.90
3628;DHT22;1830;49.000;12.074;2023-08-08T02:30:53;11.50;99.90
3628;DHT22;1830;49.000;12.074;2023-08-08T02:33:21;11.50;99.90
3628;DHT22;1830;49.000;12.074;2023-08-08T02:35:48;11.50;99.90
3628;DHT22;1830;49.000;12.074;2023-08-08T02:38:15;11.50;99.90
3628;DHT22;1830;49.000;12.074;2023-08-08T02:40:42;11.50;99.90
3628;DHT22;1830;49.000;12.074;2023-08-08T02:43:08;11.50;99.90
3628;DHT22;1830;49.000;12.074;2023-08-08T02:45:36;11.50;99.90
3628;DHT22;1830;49.000;12.074;2023-08-08T02:48:03;11.50;99.90
3628;DHT22;1830;49.000;12.074;2023-08-08T02:50:32;11.50;99.90
3628;DHT22;1830;49.000;12.074;2023-08-08T02:52:58;11.50;99.90
3628;DHT22;1830;49.000;12.074;2023-08-08T02:55:25;11.50;99.90
3628;DHT22;1830;49.000;12.074;2023-08-08T02:57:52;11.50;99.90
3628;DHT22;1830;49.000;12.074;2023-08-08T03:00:19;11.50;99.90
3628;DHT22;1830;49.000;12.074;2023-08-08T03:02:45;11.50;99.90
3628;DHT22;1830;49.000;12.074;2023-08-08T03:05:12;11.60;99.90
3628;DHT22;1830;49.000;12.074;2023-08-08T03:07:40;11.60;99.90
3628;DHT22;1830;49.000;12.074;2023-08-08T03:10:07;11.60;99.90
3628;DHT22;1830;49.000;12.074;2023-08-08T03:12:35;11.60;99.90
3628;DHT22;1830;49.000;12.074;2023-08-08T03:15:04;11.60;99.90
3628;DHT22;1830;49.000;12.074;2023-08-08T03:17:31;11.60;99.90
3628;DHT22;1830;49.000;12.074;2023-08-08T03:19:58;11.60;99.90
3628;DHT22;1830;49.000;12.074;2023-08-08T03:22:24;11.50;99.90
3628;DHT22;1830;49.000;12.074;2023-08-08T03:24:53;11.50;99.90
3628;DHT22;1830;49.000;12.074;2023-08-08T03:27:19;11.60;99.90
3628;DHT22;1830;49.000;12.074;2023-08-08T03:29:46;11.50;99.90
3628;DHT22;1830;49.000;12.074;2023-08-08T03:32:13;11.50;99.90
3628;DHT22;1830;49.000;12.074;2023-08-08T03:34:40;11.60;99.90
3628;DHT22;1830;49.000;12.074;2023-08-08T03:37:06;11.60;99.90
3628;DHT22;1830;49.000;12.074;2023-08-08T03:39:33;11.60;99.90
3628;DHT22;1830;49.000;12.074;2023-08-08T03:42:01;11.60;99.90
3628;DHT22;1830;49.000;12.074;2023-08-08T03:44:28;11.60;99.90
3628;DHT22;1830;49.000;12.074;2023-08-08T03:46:55;11.60;99.90
3628;DHT22;1830;49.000;12.074;2023-08-08T03:49:22;11.60;99.90
3628;DHT22;1830;49.000;12.074;2023-08-08T03:51:48;11.60;99.90
3628;DHT22;1830;49.000;12.074;2023-08-08T03:54:17;11.60;99.90
3628;DHT22;1830;49.000;12.074;2023-08-08T03:56:44;11.60;99.90
3628;DHT22;1830;49.000;12.074;2023-08-08T03:59:12;11.60;99.90
3628;DHT22;1830;49.000;12.074;2023-08-08T04:01:39;11.60;99.90
3628;DHT22;1830;49.000;12.074;2023-08-08T04:04:06;11.60;99.90
3628;DHT22;1830;49.000;12.074;2023-08-08T04:06:32;11.60;99.90
3628;DHT22;1830;49.000;12.074;2023-08-08T04:08:59;11.60;99.90
3628;DHT22;1830;49.000;12.074;2023-08-08T04:11:26;11.60;99.90
3628;DHT22;1830;49.000;12.074;2023-08-08T04:13:53;11.60;99.90
3628;DHT22;1830;49.000;12.074;2023-08-08T04:16:21;11.60;99.90
3628;DHT22;1830;49.000;12.074;2023-08-08T04:18:48;11.70;99.90
3628;DHT22;1830;49.000;12.074;2023-08-08T04:21:15;11.70;99.90
3628;DHT22;1830;49.000;12.074;2023-08-08T04:23:41;11.60;99.90
3628;DHT22;1830;49.000;12.074;2023-08-08T04:26:08;11.60;99.90
3628;DHT22;1830;49.000;12.074;2023-08-08T04:28:35;11.60;99.90
3628;DHT22;1830;49.000;12.074;2023-08-08T04:31:02;11.60;99.90
3628;DHT22;1830;49.000;12.074;2023-08-08T04:33:30;11.50;99.90
3628;DHT22;1830;49.000;12.074;2023-08-08T04:35:57;11.60;99.90
3628;DHT22;1830;49.000;12.074;2023-08-08T04:38:24;11.60;99.90
3628;DHT22;1830;49.000;12.074;2023-08-08T04:40:51;11.60;99.90
3628;DHT22;1830;49.000;12.074;2023-08-08T04:43:17;11.60;99.90
3628;DHT22;1830;49.000;12.074;2023-08-08T04:45:44;11.60;99.90
3628;DHT22;1830;49.000;12.074;2023-08-08T04:48:11;11.70;99.90
3628;DHT22;1830;49.000;12.074;2023-08-08T04:50:39;12.10;99.90
3628;DHT22;1830;49.000;12.074;2023-08-08T04:53:06;12.00;99.90
3628;DHT22;1830;49.000;12.074;2023-08-08T04:55:33;11.90;99.90
3628;DHT22;1830;49.000;12.074;2023-08-08T04:58:00;12.00;99.90
3628;DHT22;1830;49.000;12.074;2023-08-08T05:00:26;11.90;99.90
3628;DHT22;1830;49.000;12.074;2023-08-08T05:02:54;11.90;99.90
3628;DHT22;1830;49.000;12.074;2023-08-08T05:05:21;11.90;99.90
3628;DHT22;1830;49.000;12.074;2023-08-08T05:07:49;11.90;99.90
3628;DHT22;1830;49.000;12.074;2023-08-08T05:10:16;11.80;99.90
3628;DHT22;1830;49.000;12.074;2023-08-08T05:12:42;11.90;99.90
3628;DHT22;1830;49.000;12.074;2023-08-08T05:15:09;11.80;99.90
3628;DHT22;1830;49.000;12.074;2023-08-08T05:17:36;11.90;99.90
3628;DHT22;1830;49.000;12.074;2023-08-08T05:20:04;11.90;99.90
3628;DHT22;1830;49.000;12.074;2023-08-08T05:22:31;11.80;99.90
3628;DHT22;1830;49.000;12.074;2023-08-08T05:24:59;11.80;99.90
3628;DHT22;1830;49.000;12.074;2023-08-08T05:27:26;11.90;99.90
3628;DHT22;1830;49.000;12.074;2023-08-08T05:29:53;11.90;99.90
3628;DHT22;1830;49.000;12.074;2023-08-08T05:32:20;11.90;99.90
3628;DHT22;1830;49.000;12.074;2023-08-08T05:34:47;11.90;99.90
3628;DHT22;1830;49.000;12.074;2023-08-08T05:37:14;12.00;99.90
3628;DHT22;1830;49.000;12.074;2023-08-08T05:39:41;11.90;99.90
3628;DHT22;1830;49.000;12.074;2023-08-08T05:42:09;11.90;99.90
3628;DHT22;1830;49.000;12.074;2023-08-08T05:44:36;12.00;99.90
3628;DHT22;1830;49.000;12.074;2023-08-08T05:47:03;12.10;99.90
3628;DHT22;1830;49.000;12.074;2023-08-08T05:49:30;12.20;99.90
3628;DHT22;1830;49.000;12.074;2023-08-08T05:51:56;12.20;99.90
3628;DHT22;1830;49.000;12.074;2023-08-08T05:54:23;12.20;99.90
3628;DHT22;1830;49.000;12.074;2023-08-08T05:56:50;12.20;99.90
3628;DHT22;1830;49.000;12.074;2023-08-08T05:59:18;12.30;99.90
3628;DHT22;1830;49.000;12.074;2023-08-08T06:01:45;12.30;99.90
3628;DHT22;1830;49.000;12.074;2023-08-08T06:04:12;12.40;99.90
3628;DHT22;1830;49.000;12.074;2023-08-08T06:06:39;12.40;99.90
3628;DHT22;1830;49.000;12.074;2023-08-08T06:09:06;12.50;99.90
3628;DHT22;1830;49.000;12.074;2023-08-08T06:11:34;12.50;99.90
3628;DHT22;1830;49.000;12.074;2023-08-08T06:14:01;12.50;99.90
3628;DHT22;1830;49.000;12.074;2023-08-08T06:16:29;12.50;99.90
3628;DHT22;1830;49.000;12.074;2023-08-08T06:18:56;12.50;99.90
3628;DHT22;1830;49.000;12.074;2023-08-08T06:21:23;12.50;99.90
3628;DHT22;1830;49.000;12.074;2023-08-08T06:23:49;12.50;99.90
3628;DHT22;1830;49.000;12.074;2023-08-08T06:26:18;12.60;99.90
3628;DHT22;1830;49.000;12.074;2023-08-08T06:28:46;12.60;99.90
3628;DHT22;1830;49.000;12.074;2023-08-08T06:31:13;12.70;99.90
3628;DHT22;1830;49.000;12.074;2023-08-08T06:33:42;12.70;99.90
3628;DHT22;1830;49.000;12.074;2023-08-08T06:36:08;12.70;99.90
3628;DHT22;1830;49.000;12.074;2023-08-08T06:38:35;12.70;99.90
3628;DHT22;1830;49.000;12.074;2023-08-08T06:41:02;12.80;99.90
3628;DHT22;1830;49.000;12.074;2023-08-08T06:43:29;12.80;99.90
3628;DHT22;1830;49.000;12.074;2023-08-08T06:45:56;12.90;99.90
3628;DHT22;1830;49.000;12.074;2023-08-08T06:48:23;12.90;99.90
3628;DHT22;1830;49.000;12.074;2023-08-08T06:50:52;13.00;99.90
3628;DHT22;1830;49.000;12.074;2023-08-08T06:53:18;13.10;99.90
3628;DHT22;1830;49.000;12.074;2023-08-08T06:55:46;13.10;99.90
3628;DHT22;1830;49.000;12.074;2023-08-08T06:58:12;13.20;99.90
3628;DHT22;1830;49.000;12.074;2023-08-08T07:00:39;13.30;99.90
3628;DHT22;1830;49.000;12.074;2023-08-08T07:03:06;13.40;99.90
3628;DHT22;1830;49.000;12.074;2023-08-08T07:05:33;13.50;99.90
3628;DHT22;1830;49.000;12.074;2023-08-08T07:08:01;13.50;99.90
3628;DHT22;1830;49.000;12.074;2023-08-08T07:10:28;13.50;99.90
3628;DHT22;1830;49.000;12.074;2023-08-08T07:12:55;13.50;99.90
3628;DHT22;1830;49.000;12.074;2023-08-08T07:15:21;13.60;99.90
3628;DHT22;1830;49.000;12.074;2023-08-08T07:17:49;13.70;99.90
3628;DHT22;1830;49.000;12.074;2023-08-08T07:20:16;13.70;99.90
3628;DHT22;1830;49.000;12.074;2023-08-08T07:22:43;13.80;99.90
3628;DHT22;1830;49.000;12.074;2023-08-08T07:25:11;13.80;99.90
3628;DHT22;1830;49.000;12.074;2023-08-08T07:27:38;13.90;99.90
3628;DHT22;1830;49.000;12.074;2023-08-08T07:30:05;13.90;99.90
3628;DHT22;1830;49.000;12.074;2023-08-08T07:32:33;14.00;99.90
3628;DHT22;1830;49.000;12.074;2023-08-08T07:35:00;14.10;99.90
3628;DHT22;1830;49.000;12.074;2023-08-08T07:37:31;14.20;99.90
3628;DHT22;1830;49.000;12.074;2023-08-08T07:39:57;14.20;99.90
3628;DHT22;1830;49.000;12.074;2023-08-08T07:42:26;14.30;99.90
3628;DHT22;1830;49.000;12.074;2023-08-08T07:44:52;14.50;99.90
3628;DHT22;1830;49.000;12.074;2023-08-08T07:47:19;14.60;99.90
3628;DHT22;1830;49.000;12.074;2023-08-08T07:49:52;14.70;99.90
3628;DHT22;1830;49.000;12.074;2023-08-08T07:56:15;14.70;99.90
3628;DHT22;1830;49.000;12.074;2023-08-08T08:04:36;14.90;99.90
3628;DHT22;1830;49.000;12.074;2023-08-08T08:07:22;14.90;99.90
3628;DHT22;1830;49.000;12.074;2023-08-08T08:09:53;14.90;99.90
3628;DHT22;1830;49.000;12.074;2023-08-08T08:12:20;14.90;99.90
3628;DHT22;1830;49.000;12.074;2023-08-08T08:14:47;14.90;99.90
3628;DHT22;1830;49.000;12.074;2023-08-08T08:17:15;15.00;99.90
3628;DHT22;1830;49.000;12.074;2023-08-08T08:19:42;15.00;99.90
3628;DHT22;1830;49.000;12.074;2023-08-08T08:22:08;15.00;99.90
3628;DHT22;1830;49.000;12.074;2023-08-08T08:24:35;15.00;99.90
3628;DHT22;1830;49.000;12.074;2023-08-08T08:27:02;15.10;99.90
3628;DHT22;1830;49.000;12.074;2023-08-08T08:29:29;15.10;99.90
3628;DHT22;1830;49.000;12.074;2023-08-08T08:31:57;15.10;99.90
3628;DHT22;1830;49.000;12.074;2023-08-08T08:34:25;15.00;99.90
3628;DHT22;1830;49.000;12.074;2023-08-08T08:36:52;14.90;99.90
3628;DHT22;1830;49.000;12.074;2023-08-08T08:39:18;14.80;99.90
3628;DHT22;1830;49.000;12.074;2023-08-08T08:41:48;14.80;99.90
3628;DHT22;1830;49.000;12.074;2023-08-08T08:44:16;14.90;99.90
3628;DHT22;1830;49.000;12.074;2023-08-08T08:46:45;14.90;99.90
3628;DHT22;1830;49.000;12.074;2023-08-08T08:49:14;14.90;99.90
3628;DHT22;1830;49.000;12.074;2023-08-08T08:51:45;15.00;99.90
3628;DHT22;1830;49.000;12.074;2023-08-08T08:54:12;15.10;99.90
3628;DHT22;1830;49.000;12.074;2023-08-08T08:56:40;15.20;99.90
3628;DHT22;1830;49.000;12.074;2023-08-08T08:59:07;15.20;99.90
3628;DHT22;1830;49.000;12.074;2023-08-08T09:01:34;15.20;99.90
3628;DHT22;1830;49.000;12.074;2023-08-08T09:04:03;15.20;99.90
3628;DHT22;1830;49.000;12.074;2023-08-08T09:06:32;15.40;99.90
3628;DHT22;1830;49.000;12.074;2023-08-08T09:09:00;15.50;99.90
3628;DHT22;1830;49.000;12.074;2023-08-08T09:11:28;15.70;99.90
3628;DHT22;1830;49.000;12.074;2023-08-08T09:13:54;15.80;99.90
3628;DHT22;1830;49.000;12.074;2023-08-08T09:16:22;15.90;99.90
3628;DHT22;1830;49.000;12.074;2023-08-08T09:18:49;16.00;99.90
3628;DHT22;1830;49.000;12.074;2023-08-08T09:21:18;16.10;99.90
3628;DHT22;1830;49.000;12.074;2023-08-08T09:23:45;16.10;99.90
3628;DHT22;1830;49.000;12.074;2023-08-08T09:26:14;16.10;99.90
3628;DHT22;1830;49.000;12.074;2023-08-08T09:28:42;16.20;99.90
3628;DHT22;1830;49.000;12.074;2023-08-08T09:31:09;16.40;99.90
3628;DHT22;1830;49.000;12.074;2023-08-08T09:33:38;16.40;99.90
3628;DHT22;1830;49.000;12.074;2023-08-08T09:36:06;16.40;99.90
3628;DHT22;1830;49.000;12.074;2023-08-08T09:38:33;16.40;99.90
3628;DHT22;1830;49.000;12.074;2023-08-08T09:41:00;16.50;99.90
3628;DHT22;1830;49.000;12.074;2023-08-08T09:43:28;16.60;99.90
3628;DHT22;1830;49.000;12.074;2023-08-08T09:45:55;16.80;99.90
3628;DHT22;1830;49.000;12.074;2023-08-08T09:48:22;16.90;99.90
3628;DHT22;1830;49.000;12.074;2023-08-08T09:50:50;16.90;99.90
3628;DHT22;1830;49.000;12.074;2023-08-08T09:53:17;17.00;99.90
3628;DHT22;1830;49.000;12.074;2023-08-08T09:55:45;17.10;99.90
3628;DHT22;1830;49.000;12.074;2023-08-08T09:58:13;17.10;99.90
3628;DHT22;1830;49.000;12.074;2023-08-08T10:00:41;17.20;99.90
3628;DHT22;1830;49.000;12.074;2023-08-08T10:03:09;17.30;99.90
3628;DHT22;1830;49.000;12.074;2023-08-08T10:05:36;17.40;99.90
3628;DHT22;1830;49.000;12.074;2023-08-08T10:08:04;17.40;99.90
3628;DHT22;1830;49.000;12.074;2023-08-08T10:10:31;17.50;99.90
3628;DHT22;1830;49.000;12.074;2023-08-08T10:12:59;17.60;99.90
3628;DHT22;1830;49.000;12.074;2023-08-08T10:15:26;17.80;99.90
3628;DHT22;1830;49.000;12.074;2023-08-08T10:17:55;17.80;99.90
3628;DHT22;1830;49.000;12.074;2023-08-08T10:20:24;17.90;99.90
3628;DHT22;1830;49.000;12.074;2023-08-08T10:22:53;17.90;99.90
3628;DHT22;1830;49.000;12.074;2023-08-08T10:25:23;18.00;99.90
3628;DHT22;1830;49.000;12.074;2023-08-08T10:28:02;18.00;99.90
3628;DHT22;1830;49.000;12.074;2023-08-08T10:30:30;18.00;99.90
3628;DHT22;1830;49.000;12.074;2023-08-08T10:32:58;18.30;99.90
3628;DHT22;1830;49.000;12.074;2023-08-08T10:35:36;18.30;99.90
3628;DHT22;1830;49.000;12.074;2023-08-08T10:38:08;18.30;99.90
3628;DHT22;1830;49.000;12.074;2023-08-08T10:40:35;18.40;99.90
3628;DHT22;1830;49.000;12.074;2023-08-08T10:43:10;18.50;99.90
3628;DHT22;1830;49.000;12.074;2023-08-08T10:45:41;18.50;99.90
3628;DHT22;1830;49.000;12.074;2023-08-08T10:48:10;18.60;99.90
3628;DHT22;1830;49.000;12.074;2023-08-08T10:50:40;18.60;99.90
3628;DHT22;1830;49.000;12.074;2023-08-08T10:53:08;18.50;99.90
3628;DHT22;1830;49.000;12.074;2023-08-08T10:55:36;18.50;99.90
3628;DHT22;1830;49.000;12.074;2023-08-08T10:58:06;18.40;99.90
3628;DHT22;1830;49.000;12.074;2023-08-08T11:00:35;18.50;99.90
3628;DHT22;1830;49.000;12.074;2023-08-08T11:03:03;18.50;99.90
3628;DHT22;1830;49.000;12.074;2023-08-08T11:05:33;18.60;99.90
3628;DHT22;1830;49.000;12.074;2023-08-08T11:08:02;18.70;99.90
3628;DHT22;1830;49.000;12.074;2023-08-08T11:10:34;18.80;99.90
3628;DHT22;1830;49.000;12.074;2023-08-08T11:13:04;18.90;99.90
3628;DHT22;1830;49.000;12.074;2023-08-08T11:15:32;18.90;99.90
3628;DHT22;1830;49.000;12.074;2023-08-08T11:18:00;18.90;99.90
3628;DHT22;1830;49.000;12.074;2023-08-08T11:20:30;19.00;99.90
3628;DHT22;1830;49.000;12.074;2023-08-08T11:22:59;19.00;99.90
3628;DHT22;1830;49.000;12.074;2023-08-08T11:25:28;18.90;99.90
3628;DHT22;1830;49.000;12.074;2023-08-08T11:27:56;18.90;99.90
3628;DHT22;1830;49.000;12.074;2023-08-08T11:30:24;18.90;99.90
3628;DHT22;1830;49.000;12.074;2023-08-08T11:32:53;18.90;99.90
3628;DHT22;1830;49.000;12.074;2023-08-08T11:35:22;18.90;99.90
3628;DHT22;1830;49.000;12.074;2023-08-08T11:37:50;19.00;99.90
3628;DHT22;1830;49.000;12.074;2023-08-08T11:40:20;19.00;99.90
3628;DHT22;1830;49.000;12.074;2023-08-08T11:42:47;19.10;99.90
3628;DHT22;1830;49.000;12.074;2023-08-08T11:45:16;19.10;99.90
3628;DHT22;1830;49.000;12.074;2023-08-08T11:47:43;19.10;99.90
3628;DHT22;1830;49.000;12.074;2023-08-08T11:50:11;19.10;99.90
3628;DHT22;1830;49.000;12.074;2023-08-08T11:52:40;19.10;99.90
3628;DHT22;1830;49.000;12.074;2023-08-08T11:55:08;19.20;99.90
3628;DHT22;1830;49.000;12.074;2023-08-08T11:57:37;19.10;99.90
3628;DHT22;1830;49.000;12.074;2023-08-08T12:00:06;19.20;99.90
3628;DHT22;1830;49.000;12.074;2023-08-08T12:02:33;19.30;99.90
3628;DHT22;1830;49.000;12.074;2023-08-08T12:05:04;19.50;99.90
3628;DHT22;1830;49.000;12.074;2023-08-08T12:07:32;19.50;99.90
3628;DHT22;1830;49.000;12.074;2023-08-08T12:09:59;19.50;99.70
3628;DHT22;1830;49.000;12.074;2023-08-08T12:12:26;19.60;97.40
3628;DHT22;1830;49.000;12.074;2023-08-08T12:14:55;19.70;97.00
3628;DHT22;1830;49.000;12.074;2023-08-08T12:17:22;19.80;97.70
3628;DHT22;1830;49.000;12.074;2023-08-08T12:19:48;19.90;96.90
3628;DHT22;1830;49.000;12.074;2023-08-08T12:22:15;20.00;95.50
3628;DHT22;1830;49.000;12.074;2023-08-08T12:24:43;20.10;95.90
3628;DHT22;1830;49.000;12.074;2023-08-08T12:27:10;20.30;95.80
3628;DHT22;1830;49.000;12.074;2023-08-08T12:29:37;20.50;95.30
3628;DHT22;1830;49.000;12.074;2023-08-08T12:32:06;20.40;92.70
3628;DHT22;1830;49.000;12.074;2023-08-08T12:34:34;20.30;91.80
3628;DHT22;1830;49.000;12.074;2023-08-08T12:37:01;20.40;92.40
3628;DHT22;1830;49.000;12.074;2023-08-08T12:39:28;20.40;91.20
3628;DHT22;1830;49.000;12.074;2023-08-08T12:41:55;20.50;91.80
3628;DHT22;1830;49.000;12.074;2023-08-08T12:44:22;20.70;91.50
3628;DHT22;1830;49.000;12.074;2023-08-08T12:46:49;20.70;90.80
3628;DHT22;1830;49.000;12.074;2023-08-08T12:49:17;20.80;91.30
3628;DHT22;1830;49.000;12.074;2023-08-08T12:51:44;20.90;91.10
3628;DHT22;1830;49.000;12.074;2023-08-08T12:54:11;21.00;91.10
3628;DHT22;1830;49.000;12.074;2023-08-08T12:56:38;21.00;90.60
3628;DHT22;1830;49.000;12.074;2023-08-08T12:59:04;21.00;91.00
3628;DHT22;1830;49.000;12.074;2023-08-08T13:01:31;21.00;90.40
3628;DHT22;1830;49.000;12.074;2023-08-08T13:03:58;21.10;91.50
3628;DHT22;1830;49.000;12.074;2023-08-08T13:06:26;21.20;92.10
3628;DHT22;1830;49.000;12.074;2023-08-08T13:08:53;21.30;91.10
3628;DHT22;1830;49.000;12.074;2023-08-08T13:11:20;21.30;91.00
3628;DHT22;1830;49.000;12.074;2023-08-08T13:13:47;21.40;92.10
3628;DHT22;1830;49.000;12.074;2023-08-08T13:16:14;21.30;92.00
3628;DHT22;1830;49.000;12.074;2023-08-08T13:18:40;21.20;90.80
3628;DHT22;1830;49.000;12.074;2023-08-08T13:21:07;21.40;91.60
3628;DHT22;1830;49.000;12.074;2023-08-08T13:23:37;21.20;91.70
3628;DHT22;1830;49.000;12.074;2023-08-08T13:26:03;21.20;91.40
3628;DHT22;1830;49.000;12.074;2023-08-08T13:28:31;21.20;91.00
3628;DHT22;1830;49.000;12.074;2023-08-08T13:30:57;21.10;90.40
3628;DHT22;1830;49.000;12.074;2023-08-08T13:33:24;20.90;90.50
3628;DHT22;1830;49.000;12.074;2023-08-08T13:35:51;20.80;89.80
3628;DHT22;1830;49.000;12.074;2023-08-08T13:38:17;20.90;90.70
3628;DHT22;1830;49.000;12.074;2023-08-08T13:40:46;21.20;91.00
3628;DHT22;1830;49.000;12.074;2023-08-08T13:43:12;21.30;90.80
3628;DHT22;1830;49.000;12.074;2023-08-08T13:45:39;21.40;87.00
3628;DHT22;1830;49.000;12.074;2023-08-08T13:48:06;21.40;84.80
3628;DHT22;1830;49.000;12.074;2023-08-08T13:50:33;21.50;85.00
3628;DHT22;1830;49.000;12.074;2023-08-08T13:52:59;21.60;86.50
3628;DHT22;1830;49.000;12.074;2023-08-08T13:55:26;21.70;83.00
3628;DHT22;1830;49.000;12.074;2023-08-08T13:57:54;21.70;81.70
3628;DHT22;1830;49.000;12.074;2023-08-08T14:00:22;21.70;82.50
3628;DHT22;1830;49.000;12.074;2023-08-08T14:02:49;21.50;83.90
3628;DHT22;1830;49.000;12.074;2023-08-08T14:05:16;21.50;81.90
3628;DHT22;1830;49.000;12.074;2023-08-08T14:07:43;21.40;84.20
3628;DHT22;1830;49.000;12.074;2023-08-08T14:10:09;21.40;85.60
3628;DHT22;1830;49.000;12.074;2023-08-08T14:12:36;21.40;83.50
3628;DHT22;1830;49.000;12.074;2023-08-08T14:15:06;21.50;82.10
3628;DHT22;1830;49.000;12.074;2023-08-08T14:17:34;21.40;81.80
3628;DHT22;1830;49.000;12.074;2023-08-08T14:20:01;21.50;81.90
3628;DHT22;1830;49.000;12.074;2023-08-08T14:22:28;21.50;79.30
3628;DHT22;1830;49.000;12.074;2023-08-08T14:24:54;21.30;80.70
3628;DHT22;1830;49.000;12.074;2023-08-08T14:27:21;21.30;80.90
3628;DHT22;1830;49.000;12.074;2023-08-08T14:29:48;21.20;83.00
3628;DHT22;1830;49.000;12.074;2023-08-08T14:32:16;21.20;83.30
3628;DHT22;1830;49.000;12.074;2023-08-08T14:34:43;21.20;83.30
3628;DHT22;1830;49.000;12.074;2023-08-08T14:37:10;21.20;85.00
3628;DHT22;1830;49.000;12.074;2023-08-08T14:39:37;21.10;85.20
3628;DHT22;1830;49.000;12.074;2023-08-08T14:42:04;21.10;85.70
3628;DHT22;1830;49.000;12.074;2023-08-08T14:44:31;21.10;87.60
3628;DHT22;1830;49.000;12.074;2023-08-08T14:46:58;21.20;87.00
3628;DHT22;1830;49.000;12.074;2023-08-08T14:49:26;21.20;86.10
3628;DHT22;1830;49.000;12.074;2023-08-08T14:51:53;21.40;86.60
3628;DHT22;1830;49.000;12.074;2023-08-08T14:54:19;21.50;85.10
3628;DHT22;1830;49.000;12.074;2023-08-08T14:56:46;21.50;81.60
3628;DHT22;1830;49.000;12.074;2023-08-08T14:59:13;21.40;81.20
3628;DHT22;1830;49.000;12.074;2023-08-08T15:01:40;21.40;80.60
3628;DHT22;1830;49.000;12.074;2023-08-08T15:04:06;21.30;78.50
3628;DHT22;1830;49.000;12.074;2023-08-08T15:06:36;21.20;77.70
3628;DHT22;1830;49.000;12.074;2023-08-08T15:09:03;21.20;77.10
3628;DHT22;1830;49.000;12.074;2023-08-08T15:11:30;21.30;75.50
3628;DHT22;1830;49.000;12.074;2023-08-08T15:13:57;21.20;77.30
3628;DHT22;1830;49.000;12.074;2023-08-08T15:16:24;21.10;78.40
3628;DHT22;1830;49.000;12.074;2023-08-08T15:18:50;21.10;78.70
3628;DHT22;1830;49.000;12.074;2023-08-08T15:21:17;21.20;79.60
3628;DHT22;1830;49.000;12.074;2023-08-08T15:23:46;21.10;80.40
3628;DHT22;1830;49.000;12.074;2023-08-08T15:26:15;21.10;80.80
3628;DHT22;1830;49.000;12.074;2023-08-08T15:28:44;21.20;77.70
3628;DHT22;1830;49.000;12.074;2023-08-08T15:31:11;21.30;76.10
3628;DHT22;1830;49.000;12.074;2023-08-08T15:33:38;21.20;78.10
3628;DHT22;1830;49.000;12.074;2023-08-08T15:36:05;21.10;76.70
3628;DHT22;1830;49.000;12.074;2023-08-08T15:38:32;20.90;78.10
3628;DHT22;1830;49.000;12.074;2023-08-08T15:41:00;20.90;78.20
3628;DHT22;1830;49.000;12.074;2023-08-08T15:43:27;20.90;76.70
3628;DHT22;1830;49.000;12.074;2023-08-08T15:45:54;20.80;77.30
3628;DHT22;1830;49.000;12.074;2023-08-08T15:48:21;20.70;76.90
3628;DHT22;1830;49.000;12.074;2023-08-08T15:50:48;20.70;76.40
3628;DHT22;1830;49.000;12.074;2023-08-08T15:53:14;20.70;75.70
3628;DHT22;1830;49.000;12.074;2023-08-08T15:55:41;20.60;76.20